Time;durP1;ratioP1;P1;durP2;ratioP2;P2;SDS_P1;SDS_P2;PMS_P1;PMS_P2;Temp;Humidity;BMP_temperature;BMP_pressure;BME280_temperature;BME280_humidity;BME280_pressure;Samples;Min_cycle;Max_cycle;Signal;HPM_P1;HPM_P2
2022/01/12 00:01:00;;;;;;;8.65;5.65;;;-0.50;99.90;;;;;;4997123;28;20222;-86
2022/01/12 00:03:26;;;;;;;7.85;4.75;;;-0.50;99.90;;;;;;5015279;28;20585;-87
2022/01/12 00:05:52;;;;;;;8.55;6.85;;;-0.50;99.90;;;;;;5013409;28;20199;-86
2022/01/12 00:08:18;;;;;;;10.35;6.00;;;-0.50;99.90;;;;;;4997411;28;20191;-86
2022/01/12 00:10:44;;;;;;;8.00;4.87;;;-0.50;99.90;;;;;;4997569;28;20238;-87
2022/01/12 00:13:09;;;;;;;10.15;5.50;;;-0.60;99.90;;;;;;5017305;28;20175;-87
2022/01/12 00:15:35;;;;;;;10.43;5.83;;;-0.50;99.90;;;;;;5003211;28;20229;-87
2022/01/12 00:18:01;;;;;;;15.33;6.40;;;-0.60;99.90;;;;;;5014866;28;20199;-86
2022/01/12 00:20:27;;;;;;;10.55;6.35;;;-0.60;99.90;;;;;;4998105;28;20480;-86
2022/01/12 00:22:53;;;;;;;9.23;5.97;;;-0.60;99.90;;;;;;5018763;28;20521;-87
2022/01/12 00:33:14;;;;;;;9.55;5.50;;;-0.70;99.90;;;;;;5016115;28;20182;-86
2022/01/12 00:35:46;;;;;;;10.10;6.72;;;-0.70;99.90;;;;;;4999225;28;20203;-86
2022/01/12 00:38:12;;;;;;;9.05;6.30;;;-0.70;99.90;;;;;;5001309;28;20274;-86
2022/01/12 00:40:40;;;;;;;12.25;6.53;;;-0.70;99.90;;;;;;5000952;28;20328;-86
2022/01/12 00:43:06;;;;;;;9.25;6.10;;;-0.70;99.90;;;;;;5014861;28;20214;-87
2022/01/12 00:45:38;;;;;;;13.33;7.03;;;-0.70;99.90;;;;;;5014584;28;20230;-86
2022/01/12 00:48:05;;;;;;;11.85;5.90;;;-0.70;99.90;;;;;;5022714;28;20444;-86
2022/01/12 00:50:31;;;;;;;12.35;6.90;;;-0.70;99.90;;;;;;4996661;28;20199;-87
2022/01/12 00:52:57;;;;;;;9.75;7.35;;;-0.70;99.90;;;;;;5013058;28;20183;-86
2022/01/12 00:55:22;;;;;;;16.33;7.87;;;-0.70;99.90;;;;;;5014196;28;20570;-87
2022/01/12 00:57:49;;;;;;;11.53;7.40;;;-0.70;99.90;;;;;;5013120;28;20428;-87
2022/01/12 01:00:18;;;;;;;11.65;7.47;;;-0.80;99.90;;;;;;4996575;28;20223;-86
2022/01/12 01:02:44;;;;;;;14.52;7.72;;;-0.80;99.90;;;;;;4996717;28;20266;-87
2022/01/12 01:05:10;;;;;;;12.60;8.13;;;-0.80;99.90;;;;;;5012830;28;20301;-86
2022/01/12 01:07:35;;;;;;;12.00;7.60;;;-0.80;99.90;;;;;;5014060;28;20231;-86
2022/01/12 01:10:06;;;;;;;10.33;7.13;;;-0.80;99.90;;;;;;5014135;28;20432;-86
2022/01/12 01:12:34;;;;;;;13.25;9.80;;;-0.90;99.90;;;;;;5017486;28;20183;-86
2022/01/12 01:15:14;;;;;;;14.80;9.05;;;-0.90;99.90;;;;;;5000023;28;20677;-86
2022/01/12 01:25:42;;;;;;;15.80;9.13;;;-0.90;99.90;;;;;;5023181;28;20258;-86
2022/01/12 01:28:09;;;;;;;14.35;9.57;;;-0.90;99.90;;;;;;5001109;28;20245;-87
2022/01/12 01:30:37;;;;;;;16.55;10.10;;;-0.90;99.90;;;;;;4999848;28;20314;-87
2022/01/12 01:33:06;;;;;;;22.52;12.13;;;-1.00;99.90;;;;;;5000282;28;20189;-87
2022/01/12 01:35:34;;;;;;;15.60;8.77;;;-1.00;99.90;;;;;;4999838;28;20199;-87
2022/01/12 01:38:01;;;;;;;14.63;9.00;;;-1.00;99.90;;;;;;4999918;28;20175;-87
2022/01/12 01:40:29;;;;;;;19.95;11.23;;;-1.00;99.90;;;;;;4999720;28;20227;-87
2022/01/12 01:53:45;;;;;;;18.50;9.95;;;-1.20;99.90;;;;;;5018574;28;20226;-87
2022/01/12 01:56:12;;;;;;;16.77;9.20;;;-1.20;99.90;;;;;;5017675;28;20191;-87
2022/01/12 01:58:38;;;;;;;18.70;11.10;;;-1.20;99.90;;;;;;5028055;28;20448;-87
2022/01/12 02:01:04;;;;;;;21.37;11.10;;;-1.30;99.90;;;;;;5019906;28;20230;-87
2022/01/12 02:03:30;;;;;;;19.85;10.82;;;-1.30;99.90;;;;;;5018403;28;20596;-86
2022/01/12 02:05:59;;;;;;;18.57;10.30;;;-1.40;99.90;;;;;;5015898;28;20215;-87
2022/01/12 02:08:25;;;;;;;18.73;10.15;;;-1.40;99.90;;;;;;4999369;28;20436;-87
2022/01/12 02:10:55;;;;;;;21.13;12.38;;;-1.40;99.90;;;;;;4999178;28;20203;-87
2022/01/12 02:13:21;;;;;;;15.48;10.75;;;-1.50;99.90;;;;;;5016613;28;20648;-86
2022/01/12 02:15:48;;;;;;;19.80;10.90;;;-1.50;99.90;;;;;;4999213;28;20210;-87
2022/01/12 02:18:52;;;;;;;20.60;10.98;;;-1.50;99.90;;;;;;4999264;28;20183;-87
2022/01/12 02:40:36;;;;;;;22.52;11.13;;;-1.70;99.90;;;;;;5016178;28;20219;-87
2022/01/12 02:51:14;;;;;;;25.63;13.07;;;-1.70;99.90;;;;;;5016037;28;20257;-87
2022/01/12 02:53:43;;;;;;;24.35;13.77;;;-1.80;99.90;;;;;;5016390;28;20175;-87
2022/01/12 02:56:20;;;;;;;24.63;13.45;;;-1.80;99.90;;;;;;5003510;28;20562;-87
2022/01/12 02:58:48;;;;;;;28.20;12.35;;;-1.80;99.90;;;;;;5002696;28;20557;-87
2022/01/12 03:03:43;;;;;;;27.50;14.38;;;-1.80;99.90;;;;;;5037441;28;20183;-87
2022/01/12 03:06:10;;;;;;;26.73;14.52;;;-1.80;99.90;;;;;;5010029;28;20206;-87
2022/01/12 03:08:38;;;;;;;26.30;15.63;;;-1.80;99.90;;;;;;4998626;28;20183;-87
2022/01/12 03:11:06;;;;;;;24.38;13.73;;;-1.80;99.90;;;;;;4998378;28;20209;-87
2022/01/12 03:13:32;;;;;;;25.08;15.27;;;-1.80;99.90;;;;;;5016026;28;20523;-87
2022/01/12 03:15:58;;;;;;;23.40;13.90;;;-1.80;99.90;;;;;;4997948;28;20249;-87
2022/01/12 03:18:24;;;;;;;28.30;13.27;;;-1.80;99.90;;;;;;4998098;28;20487;-87
2022/01/12 03:20:50;;;;;;;24.00;14.47;;;-1.80;99.90;;;;;;5002378;28;20582;-86
2022/01/12 03:23:16;;;;;;;29.43;16.17;;;-1.80;99.90;;;;;;5016811;28;20659;-87
2022/01/12 03:25:42;;;;;;;27.48;15.25;;;-1.80;99.90;;;;;;5015275;28;20420;-86
2022/01/12 03:28:08;;;;;;;28.35;13.60;;;-1.80;99.90;;;;;;4998427;28;20183;-87
2022/01/12 03:30:51;;;;;;;25.67;15.13;;;-1.80;99.90;;;;;;4997598;28;20227;-86
2022/01/12 03:34:06;;;;;;;27.38;13.73;;;-1.80;99.90;;;;;;5015019;28;20214;-87
2022/01/12 03:38:59;;;;;;;35.33;16.80;;;-1.90;99.90;;;;;;5015389;28;20222;-87
2022/01/12 03:41:27;;;;;;;31.58;16.20;;;-1.90;99.90;;;;;;5015383;28;20214;-87
2022/01/12 03:43:54;;;;;;;28.35;14.05;;;-1.90;99.90;;;;;;4997941;28;20176;-86
2022/01/12 03:46:24;;;;;;;30.00;14.60;;;-1.90;99.90;;;;;;4997615;28;20202;-87
2022/01/12 03:48:49;;;;;;;31.58;16.08;;;-1.90;99.90;;;;;;4998498;28;20211;-87
2022/01/12 03:51:15;;;;;;;28.43;14.93;;;-1.90;99.90;;;;;;5001842;28;20217;-87
2022/01/12 03:53:41;;;;;;;27.13;14.50;;;-1.90;99.90;;;;;;5035060;28;20171;-87
2022/01/12 03:56:06;;;;;;;30.30;15.10;;;-1.90;99.90;;;;;;5006503;28;20814;-86
2022/01/12 03:58:32;;;;;;;28.60;16.53;;;-1.90;99.90;;;;;;4997551;28;20270;-87
2022/01/12 04:00:58;;;;;;;25.43;14.00;;;-1.90;99.90;;;;;;4997147;28;20688;-86
2022/01/12 04:03:25;;;;;;;26.30;14.57;;;-1.90;99.90;;;;;;4997632;28;20270;-86
2022/01/12 04:08:21;;;;;;;27.70;14.60;;;-2.00;99.90;;;;;;5015049;28;20175;-86
2022/01/12 04:10:51;;;;;;;26.83;13.77;;;-2.00;99.90;;;;;;4996889;28;20273;-87
2022/01/12 04:13:19;;;;;;;22.15;12.50;;;-2.00;99.90;;;;;;4997126;28;20663;-85
2022/01/12 04:15:49;;;;;;;27.10;14.00;;;-2.10;99.90;;;;;;4998672;28;20196;-87
2022/01/12 04:18:14;;;;;;;30.05;13.57;;;-2.10;99.90;;;;;;5000941;28;20214;-87
2022/01/12 04:20:49;;;;;;;23.77;11.50;;;-2.10;99.90;;;;;;4998342;28;20563;-88
2022/01/12 04:23:17;;;;;;;22.38;11.70;;;-2.00;99.90;;;;;;4998524;28;20194;-86
2022/01/12 04:25:53;;;;;;;27.20;14.07;;;-1.90;99.90;;;;;;4999511;28;20210;-86
2022/01/12 04:28:21;;;;;;;24.67;11.63;;;-1.80;99.90;;;;;;4997069;28;20179;-88
2022/01/12 04:30:48;;;;;;;23.75;12.32;;;-1.60;99.90;;;;;;5013187;28;20195;-88
2022/01/12 04:33:15;;;;;;;22.20;11.52;;;-1.40;99.90;;;;;;5013690;28;20175;-88
2022/01/12 04:35:47;;;;;;;24.55;11.25;;;-1.30;99.90;;;;;;5001224;28;20194;-88
2022/01/12 04:38:13;;;;;;;20.10;11.48;;;-1.20;99.90;;;;;;5007707;28;20209;-87
2022/01/12 04:40:40;;;;;;;21.60;11.23;;;-1.10;99.90;;;;;;5004675;28;20222;-87
2022/01/12 04:43:08;;;;;;;20.77;11.55;;;-1.00;99.90;;;;;;5030146;28;20194;-88
2022/01/12 04:45:41;;;;;;;25.48;11.40;;;-0.80;99.90;;;;;;5016434;28;20195;-88
2022/01/12 04:50:43;;;;;;;24.30;11.93;;;-0.70;99.90;;;;;;5018221;28;20724;-86
2022/01/12 04:53:10;;;;;;;22.63;12.73;;;-0.60;99.90;;;;;;5018391;28;20266;-87
2022/01/12 04:55:36;;;;;;;23.13;12.40;;;-0.60;99.90;;;;;;5017063;28;20203;-88
2022/01/12 04:58:02;;;;;;;23.53;12.50;;;-0.60;99.90;;;;;;5018358;28;20651;-86
2022/01/12 05:00:30;;;;;;;25.00;11.68;;;-0.60;99.90;;;;;;5017981;28;20231;-86
2022/01/12 05:13:40;;;;;;;19.00;10.80;;;-0.20;99.90;;;;;;5018105;28;20237;-88
2022/01/12 05:16:06;;;;;;;17.20;9.90;;;-0.20;99.90;;;;;;5017275;28;20230;-86
2022/01/12 05:18:33;;;;;;;24.13;11.95;;;-0.20;99.90;;;;;;5013681;28;20242;-88
2022/01/12 05:21:00;;;;;;;20.50;10.00;;;-0.20;99.90;;;;;;5007083;28;20229;-88
2022/01/12 05:23:26;;;;;;;14.88;8.85;;;-0.20;99.90;;;;;;5031146;28;20175;-88
2022/01/12 05:25:52;;;;;;;16.02;9.13;;;0.10;99.90;;;;;;5033429;28;20218;-86
2022/01/12 05:28:20;;;;;;;18.55;8.98;;;0.50;99.90;;;;;;5039539;28;20186;-87
2022/01/12 05:30:47;;;;;;;21.90;9.40;;;0.80;99.90;;;;;;5015783;28;20292;-86
2022/01/12 05:33:13;;;;;;;18.48;9.65;;;1.20;99.90;;;;;;5036721;28;20608;-86
2022/01/12 05:35:39;;;;;;;18.52;11.13;;;1.10;99.90;;;;;;5018408;28;20202;-86
2022/01/12 05:38:08;;;;;;;14.90;9.20;;;0.90;99.90;;;;;;5018389;28;20661;-86
2022/01/12 05:40:34;;;;;;;21.00;9.13;;;0.50;99.90;;;;;;5017411;28;20483;-86
2022/01/12 05:43:00;;;;;;;18.93;10.17;;;0.20;99.90;;;;;;5005859;28;20662;-86
2022/01/12 05:45:27;;;;;;;24.98;11.48;;;-0.10;99.90;;;;;;5036998;28;20200;-88
2022/01/12 05:50:20;;;;;;;19.67;11.17;;;-0.50;99.90;;;;;;5014794;28;20238;-88
2022/01/12 05:52:46;;;;;;;22.27;11.98;;;-0.70;99.90;;;;;;4998155;28;20186;-88
2022/01/12 05:55:13;;;;;;;21.50;11.77;;;-0.80;99.90;;;;;;4999287;28;20203;-87
2022/01/12 05:57:39;;;;;;;22.20;11.70;;;-1.00;99.90;;;;;;4996944;28;20179;-86
2022/01/12 06:00:11;;;;;;;18.48;10.73;;;-1.20;99.90;;;;;;5014364;28;20225;-88
2022/01/12 06:02:36;;;;;;;18.33;10.55;;;-1.30;99.90;;;;;;5013900;28;20184;-86
2022/01/12 06:05:03;;;;;;;22.60;11.90;;;-1.30;99.90;;;;;;5009896;28;20206;-86
2022/01/12 06:07:30;;;;;;;21.48;11.90;;;-1.40;99.90;;;;;;5016643;28;20467;-88
2022/01/12 06:09:55;;;;;;;20.92;11.88;;;-1.50;99.90;;;;;;5046881;28;20205;-88
2022/01/12 06:12:21;;;;;;;25.70;13.23;;;-1.60;99.90;;;;;;5026851;28;20178;-86
2022/01/12 06:14:47;;;;;;;25.57;12.70;;;-1.70;99.90;;;;;;5020905;28;20670;-86
2022/01/12 06:17:13;;;;;;;24.47;12.20;;;-1.80;99.90;;;;;;5035074;28;20818;-87
2022/01/12 06:19:40;;;;;;;20.40;12.47;;;-1.90;99.90;;;;;;5017962;28;20533;-86
2022/01/12 06:22:06;;;;;;;37.30;15.77;;;-1.90;99.90;;;;;;5018513;28;20742;-87
2022/01/12 06:24:32;;;;;;;36.30;15.23;;;-2.00;99.90;;;;;;5018401;28;20214;-88
2022/01/12 06:26:59;;;;;;;29.45;15.05;;;-2.10;99.90;;;;;;5028905;28;20217;-86
2022/01/12 06:29:49;;;;;;;37.22;17.50;;;-2.20;99.90;;;;;;4998664;28;20189;-86
2022/01/12 06:32:15;;;;;;;32.45;19.40;;;-2.20;99.90;;;;;;5005819;28;20187;-86
2022/01/12 06:34:41;;;;;;;28.50;15.82;;;-2.20;99.90;;;;;;5035013;28;20234;-86
2022/01/12 06:37:07;;;;;;;31.40;16.30;;;-2.30;99.90;;;;;;5016737;28;20209;-86
2022/01/12 06:39:32;;;;;;;29.13;14.43;;;-2.30;99.90;;;;;;5017326;28;20182;-88
2022/01/12 06:41:58;;;;;;;25.80;15.00;;;-2.30;99.90;;;;;;5016838;28;20446;-87
2022/01/12 06:44:25;;;;;;;33.73;15.23;;;-2.30;99.90;;;;;;5017762;28;20422;-86
2022/01/12 06:46:53;;;;;;;29.48;13.85;;;-2.30;99.90;;;;;;5020606;28;20431;-88
2022/01/12 06:49:22;;;;;;;24.67;13.70;;;-2.30;99.90;;;;;;5033414;28;20179;-85
2022/01/12 06:51:47;;;;;;;24.08;13.90;;;-2.30;99.90;;;;;;5033406;28;20636;-87
2022/01/12 06:54:16;;;;;;;27.17;14.33;;;-2.20;99.90;;;;;;5031487;28;20221;-88
2022/01/12 06:56:42;;;;;;;26.10;13.55;;;-2.20;99.90;;;;;;5017659;28;20558;-86
2022/01/12 06:59:09;;;;;;;24.38;14.15;;;-2.10;99.90;;;;;;5048494;28;20190;-87
2022/01/12 07:01:35;;;;;;;23.30;12.55;;;-2.10;99.90;;;;;;5031759;28;20753;-88
2022/01/12 07:04:00;;;;;;;25.97;13.33;;;-2.00;99.90;;;;;;5007068;28;20317;-87
2022/01/12 07:06:26;;;;;;;23.57;13.90;;;-2.00;99.90;;;;;;5009915;28;20219;-86
2022/01/12 07:08:52;;;;;;;29.40;12.50;;;-2.00;99.90;;;;;;5020495;28;20443;-86
2022/01/12 07:11:18;;;;;;;21.90;13.10;;;-2.00;99.90;;;;;;5017331;28;20241;-88
2022/01/12 07:13:44;;;;;;;24.33;13.47;;;-1.90;99.90;;;;;;5023150;28;20626;-87
2022/01/12 07:16:11;;;;;;;29.92;14.40;;;-1.90;99.90;;;;;;5026171;28;20418;-87
2022/01/12 07:18:37;;;;;;;28.58;13.93;;;-1.90;99.90;;;;;;5011050;28;20546;-88
2022/01/12 07:21:04;;;;;;;26.98;14.90;;;-1.80;99.90;;;;;;5012280;28;20229;-86
2022/01/12 07:23:30;;;;;;;26.25;14.88;;;-1.70;99.90;;;;;;5020953;28;20189;-88
2022/01/12 07:25:56;;;;;;;23.07;12.30;;;-1.70;99.90;;;;;;5026422;28;20278;-86
2022/01/12 07:28:22;;;;;;;26.35;14.32;;;-1.60;99.90;;;;;;5028252;28;20598;-86
2022/01/12 07:30:49;;;;;;;27.27;15.30;;;-1.50;99.90;;;;;;5019118;28;20869;-86
2022/01/12 07:33:16;;;;;;;24.55;13.57;;;-1.50;99.90;;;;;;5020120;28;20174;-86
2022/01/12 07:35:43;;;;;;;29.30;14.45;;;-1.50;99.90;;;;;;5028061;28;20219;-88
2022/01/12 07:38:10;;;;;;;26.35;14.00;;;-1.40;99.90;;;;;;5005600;28;20199;-86
2022/01/12 07:40:36;;;;;;;25.92;13.93;;;-1.40;99.90;;;;;;5030041;28;20660;-87
2022/01/12 07:43:03;;;;;;;27.42;13.35;;;-1.30;99.90;;;;;;5002861;28;20277;-86
2022/01/12 07:45:29;;;;;;;22.65;13.57;;;-1.00;99.90;;;;;;5044118;28;20628;-86
2022/01/12 07:47:55;;;;;;;23.27;13.00;;;-0.70;99.90;;;;;;5030121;28;20192;-86
2022/01/12 07:50:20;;;;;;;23.10;12.40;;;-0.30;99.90;;;;;;5012559;28;20202;-86
2022/01/12 07:52:46;;;;;;;24.57;13.37;;;0.00;99.90;;;;;;5031622;28;20691;-88
2022/01/12 07:55:12;;;;;;;31.73;15.10;;;0.40;99.90;;;;;;5031724;28;20258;-88
2022/01/12 07:57:38;;;;;;;24.70;13.60;;;0.90;99.90;;;;;;5008926;28;20443;-88
2022/01/12 08:00:05;;;;;;;23.58;12.75;;;1.40;99.90;;;;;;5009591;28;20714;-86
2022/01/12 08:02:31;;;;;;;25.75;12.45;;;1.90;99.90;;;;;;5031965;28;20190;-87
2022/01/12 08:04:57;;;;;;;23.73;13.80;;;2.30;99.90;;;;;;5031208;28;20190;-87
2022/01/12 08:07:23;;;;;;;25.57;13.30;;;2.80;99.90;;;;;;5014209;28;21040;-86
2022/01/12 08:09:48;;;;;;;25.97;13.47;;;3.40;99.90;;;;;;5014939;28;20194;-88
2022/01/12 08:12:14;;;;;;;22.40;12.80;;;3.90;99.90;;;;;;5017940;28;20777;-87
2022/01/12 08:14:40;;;;;;;20.30;14.00;;;4.70;99.90;;;;;;5008395;28;20680;-87
2022/01/12 08:17:06;;;;;;;25.30;14.47;;;5.30;99.90;;;;;;5007638;28;20202;-87
2022/01/12 08:19:35;;;;;;;24.33;13.20;;;5.80;99.90;;;;;;5007665;28;20402;-87
2022/01/12 08:22:01;;;;;;;23.70;14.00;;;6.10;99.90;;;;;;5013199;28;20217;-87
2022/01/12 08:24:27;;;;;;;25.45;13.68;;;6.40;99.90;;;;;;5015316;28;20201;-86
2022/01/12 08:26:53;;;;;;;22.60;13.43;;;6.60;99.80;;;;;;5009250;28;20715;-89
2022/01/12 08:29:19;;;;;;;24.23;14.97;;;6.90;98.30;;;;;;5007725;28;20685;-87
2022/01/12 08:31:47;;;;;;;23.60;14.50;;;7.10;97.30;;;;;;5021657;28;20418;-86
2022/01/12 08:34:13;;;;;;;27.75;15.07;;;7.10;96.70;;;;;;5013171;28;20224;-87
2022/01/12 08:36:41;;;;;;;25.70;15.20;;;6.80;96.10;;;;;;5009002;28;20756;-87
2022/01/12 08:39:08;;;;;;;29.52;16.00;;;6.80;96.30;;;;;;5022416;28;20464;-87
2022/01/12 08:41:35;;;;;;;22.58;13.80;;;6.70;96.80;;;;;;5036150;28;20295;-89
2022/01/12 08:44:02;;;;;;;30.38;15.50;;;6.90;96.80;;;;;;5028905;28;20205;-88
2022/01/12 08:46:28;;;;;;;27.27;16.67;;;7.00;95.80;;;;;;5020365;28;20268;-89
2022/01/12 08:48:54;;;;;;;25.87;15.03;;;7.20;95.70;;;;;;5010458;28;20175;-88
2022/01/12 08:51:19;;;;;;;26.40;15.47;;;7.50;95.10;;;;;;5005436;28;20399;-87
2022/01/12 08:53:45;;;;;;;21.63;14.00;;;7.60;94.70;;;;;;5010182;28;20189;-87
2022/01/12 08:56:11;;;;;;;21.63;13.83;;;7.90;94.10;;;;;;5024243;28;20206;-87
2022/01/12 08:58:37;;;;;;;21.50;13.93;;;8.00;93.60;;;;;;5014333;28;20644;-87
2022/01/12 09:01:04;;;;;;;24.97;14.40;;;8.10;92.90;;;;;;5025450;28;20229;-87
2022/01/12 09:03:31;;;;;;;27.08;14.30;;;8.20;92.70;;;;;;5020151;28;20414;-88
2022/01/12 09:05:57;;;;;;;23.83;13.90;;;8.30;93.00;;;;;;5023715;28;20202;-89
2022/01/12 09:08:23;;;;;;;23.02;14.40;;;8.40;92.20;;;;;;5010535;28;20174;-86
2022/01/12 09:10:49;;;;;;;19.80;13.93;;;8.50;92.00;;;;;;5020015;28;20225;-88
2022/01/12 09:13:14;;;;;;;21.77;13.67;;;8.90;91.70;;;;;;5038287;28;20213;-88
2022/01/12 09:15:40;;;;;;;25.80;14.50;;;9.10;90.80;;;;;;5031602;28;20209;-86
2022/01/12 09:18:06;;;;;;;26.80;14.57;;;9.30;90.20;;;;;;5021826;28;20218;-88
2022/01/12 09:20:32;;;;;;;26.13;14.60;;;9.50;90.00;;;;;;5009722;28;20219;-86
2022/01/12 09:22:58;;;;;;;27.93;15.87;;;9.50;90.10;;;;;;5011591;28;20190;-87
2022/01/12 09:25:24;;;;;;;24.13;14.37;;;9.60;90.20;;;;;;5016560;28;20190;-87
2022/01/12 09:27:50;;;;;;;21.80;13.73;;;9.50;89.40;;;;;;5011842;28;20187;-88
2022/01/12 09:30:18;;;;;;;23.10;12.97;;;9.60;88.80;;;;;;5015092;28;20463;-89
2022/01/12 09:32:45;;;;;;;21.70;14.40;;;9.60;87.70;;;;;;5029241;28;20310;-89
2022/01/12 09:35:11;;;;;;;23.65;13.27;;;9.60;88.60;;;;;;5019407;28;20209;-88
2022/01/12 09:37:37;;;;;;;20.00;12.95;;;9.70;87.30;;;;;;5037328;28;20213;-87
2022/01/12 09:40:04;;;;;;;27.80;12.97;;;9.80;87.10;;;;;;5009189;28;20253;-88
2022/01/12 09:42:29;;;;;;;25.67;14.63;;;10.00;86.10;;;;;;5030868;28;20458;-88
2022/01/12 09:44:56;;;;;;;22.60;14.13;;;10.10;85.50;;;;;;5014009;28;20202;-87
2022/01/12 09:47:22;;;;;;;21.98;14.98;;;10.10;85.80;;;;;;5016043;28;20193;-86
2022/01/12 09:49:48;;;;;;;21.27;13.80;;;10.20;85.00;;;;;;5033257;28;20602;-86
2022/01/12 09:52:15;;;;;;;23.00;13.85;;;10.30;84.60;;;;;;5012985;28;20522;-88
2022/01/12 09:54:41;;;;;;;26.02;15.73;;;10.40;83.90;;;;;;5011860;28;20198;-87
2022/01/12 09:57:07;;;;;;;24.20;12.63;;;10.40;84.00;;;;;;5016080;28;20187;-88
2022/01/12 09:59:33;;;;;;;25.05;16.08;;;10.30;83.80;;;;;;5037949;28;20411;-86
2022/01/12 10:02:00;;;;;;;25.70;13.57;;;10.20;83.40;;;;;;5039577;28;20553;-86
2022/01/12 10:04:28;;;;;;;25.13;14.65;;;9.90;82.90;;;;;;5042237;28;20501;-88
2022/01/12 10:06:58;;;;;;;23.20;14.70;;;9.70;84.00;;;;;;5031534;28;20234;-86
2022/01/12 10:09:37;;;;;;;29.83;16.70;;;9.50;84.70;;;;;;5023500;28;20178;-88
2022/01/12 10:12:05;;;;;;;26.88;15.57;;;9.30;84.10;;;;;;5028055;28;20186;-88
2022/01/12 10:15:00;;;;;;;23.23;16.38;;;9.10;84.80;;;;;;5004855;28;20247;-87
2022/01/12 10:17:39;;;;;;;22.35;15.48;;;8.80;85.50;;;;;;5006634;28;20201;-88
2022/01/12 10:20:06;;;;;;;25.73;14.50;;;8.60;86.70;;;;;;5037543;28;20582;-85
2022/01/12 10:22:32;;;;;;;28.27;15.23;;;8.40;86.80;;;;;;5007992;28;20182;-88
2022/01/12 10:25:00;;;;;;;22.80;14.20;;;8.30;87.80;;;;;;5024764;28;20861;-88
2022/01/12 10:27:25;;;;;;;28.55;15.63;;;8.10;88.20;;;;;;4994433;28;20395;-88
2022/01/12 10:30:01;;;;;;;26.90;15.93;;;7.90;88.80;;;;;;5024807;28;20654;-86
2022/01/12 10:32:27;;;;;;;25.33;15.20;;;7.60;89.50;;;;;;5011346;28;20452;-88
2022/01/12 10:34:53;;;;;;;24.83;15.48;;;7.40;90.30;;;;;;5025169;28;20256;-86
2022/01/12 10:37:26;;;;;;;24.17;15.50;;;7.30;90.00;;;;;;5036791;28;20626;-87
2022/01/12 10:39:54;;;;;;;24.58;13.75;;;7.10;90.20;;;;;;5030365;28;20467;-86
2022/01/12 10:42:22;;;;;;;31.52;16.33;;;7.00;89.90;;;;;;5013872;28;20654;-87
2022/01/12 10:44:53;;;;;;;28.08;16.33;;;6.90;89.60;;;;;;5016738;28;20282;-87
2022/01/12 10:47:31;;;;;;;25.00;15.05;;;6.80;90.30;;;;;;5033811;28;20182;-87
2022/01/12 10:50:07;;;;;;;24.65;15.15;;;6.60;89.90;;;;;;5018344;28;20198;-88
2022/01/12 10:52:36;;;;;;;26.15;14.77;;;6.40;90.20;;;;;;5013891;28;20719;-87
2022/01/12 10:55:05;;;;;;;22.88;15.32;;;6.20;90.10;;;;;;5023098;28;20534;-86
2022/01/12 10:57:33;;;;;;;25.95;15.35;;;6.10;90.40;;;;;;5015586;28;20193;-85
2022/01/12 11:00:26;;;;;;;29.02;15.45;;;5.90;90.60;;;;;;5011778;28;20300;-85
2022/01/12 11:03:00;;;;;;;27.58;14.98;;;5.70;90.40;;;;;;5032868;28;20247;-88
2022/01/12 11:05:29;;;;;;;30.98;17.08;;;5.50;90.80;;;;;;5017683;28;20197;-86
2022/01/12 11:07:56;;;;;;;30.00;17.45;;;5.30;90.90;;;;;;5011836;28;20240;-88
2022/01/12 11:10:22;;;;;;;33.10;17.00;;;5.10;91.20;;;;;;5012088;28;20205;-86
2022/01/12 11:12:49;;;;;;;33.58;18.08;;;4.90;91.50;;;;;;5032274;28;20191;-88
2022/01/12 11:15:21;;;;;;;33.83;19.58;;;4.80;91.90;;;;;;5012536;28;20191;-87
2022/01/12 11:17:48;;;;;;;31.40;17.83;;;4.60;92.70;;;;;;5018434;28;20547;-88
2022/01/12 11:20:28;;;;;;;26.80;14.80;;;4.50;92.50;;;;;;5025290;28;20214;-88
2022/01/12 11:23:00;;;;;;;23.05;13.27;;;4.50;92.80;;;;;;5012138;28;20185;-88
2022/01/12 11:25:42;;;;;;;28.00;14.60;;;4.40;92.30;;;;;;5027116;28;20206;-87
2022/01/12 11:28:27;;;;;;;24.35;14.90;;;4.30;93.00;;;;;;5021248;28;20178;-87
2022/01/12 11:30:55;;;;;;;25.20;14.30;;;4.30;92.90;;;;;;5012942;28;20212;-86
2022/01/12 11:33:33;;;;;;;25.48;15.65;;;4.20;93.10;;;;;;5023793;28;20189;-86
2022/01/12 11:36:11;;;;;;;25.90;14.95;;;4.10;93.10;;;;;;4996046;28;20262;-87
2022/01/12 11:38:37;;;;;;;28.10;17.63;;;4.10;93.50;;;;;;5007603;28;20175;-87
2022/01/12 11:41:24;;;;;;;21.83;14.98;;;4.00;93.90;;;;;;5014128;28;20265;-87
2022/01/12 11:43:58;;;;;;;23.73;14.63;;;4.00;94.20;;;;;;5026861;28;20598;-86
2022/01/12 11:46:27;;;;;;;25.42;14.82;;;4.00;93.50;;;;;;5027975;28;20565;-86
2022/01/12 11:48:56;;;;;;;26.65;16.05;;;4.10;94.10;;;;;;5003128;28;20237;-86
2022/01/12 11:51:35;;;;;;;27.55;17.02;;;4.10;94.20;;;;;;5023827;28;20219;-86
2022/01/12 11:54:09;;;;;;;21.88;13.23;;;4.20;94.10;;;;;;5005986;28;20394;-87
2022/01/12 11:56:36;;;;;;;27.45;16.05;;;4.30;93.80;;;;;;4998841;28;20294;-87
2022/01/12 11:59:12;;;;;;;25.88;14.85;;;4.30;93.70;;;;;;5007684;28;20191;-88
2022/01/12 12:01:44;;;;;;;27.48;16.77;;;4.40;93.80;;;;;;5003580;28;20758;-87
2022/01/12 12:04:31;;;;;;;26.80;16.02;;;4.30;94.10;;;;;;5008221;28;20274;-87
2022/01/12 12:07:08;;;;;;;25.27;14.73;;;4.30;94.50;;;;;;5011671;28;20292;-86
2022/01/12 12:09:43;;;;;;;22.85;14.80;;;4.30;94.20;;;;;;5024821;28;20190;-88
2022/01/12 12:12:17;;;;;;;26.55;15.60;;;4.40;94.70;;;;;;5025196;28;20667;-86
2022/01/12 12:14:50;;;;;;;26.10;15.60;;;4.30;93.90;;;;;;5023424;28;20325;-88
2022/01/12 12:17:17;;;;;;;31.25;16.88;;;4.40;94.10;;;;;;5026680;28;20652;-88
2022/01/12 12:19:44;;;;;;;27.48;16.17;;;4.40;94.20;;;;;;5025793;28;20203;-88
2022/01/12 12:22:16;;;;;;;26.73;15.10;;;4.40;93.90;;;;;;5010377;28;20205;-87
2022/01/12 12:24:44;;;;;;;29.77;16.42;;;4.30;93.70;;;;;;5025673;28;20202;-87
2022/01/12 12:27:11;;;;;;;23.35;14.18;;;4.30;93.60;;;;;;5027440;28;20190;-89
2022/01/12 12:29:37;;;;;;;24.55;14.60;;;4.20;93.80;;;;;;5010239;28;20190;-88
2022/01/12 12:32:06;;;;;;;25.85;15.30;;;4.20;93.60;;;;;;5019144;28;20171;-88
2022/01/12 12:34:33;;;;;;;26.85;16.30;;;4.10;94.00;;;;;;5022871;28;20544;-86
2022/01/12 12:37:10;;;;;;;23.45;13.70;;;4.10;94.30;;;;;;5019526;28;20273;-88
2022/01/12 12:39:39;;;;;;;28.65;16.52;;;4.10;94.20;;;;;;5031945;28;20549;-88
2022/01/12 12:42:19;;;;;;;28.02;15.88;;;4.00;94.20;;;;;;5015100;28;20190;-87
2022/01/12 12:44:47;;;;;;;26.13;15.55;;;4.00;94.30;;;;;;5032200;28;20198;-87
2022/01/12 12:47:14;;;;;;;32.78;17.65;;;3.90;93.80;;;;;;5020477;28;20648;-86
2022/01/12 12:49:56;;;;;;;29.25;16.90;;;3.90;94.10;;;;;;5031020;28;20211;-86
2022/01/12 12:52:25;;;;;;;29.27;16.08;;;3.90;94.50;;;;;;5012437;28;20182;-87
2022/01/12 12:54:51;;;;;;;30.33;15.68;;;3.80;94.60;;;;;;5017123;28;20285;-88
2022/01/12 12:57:21;;;;;;;28.70;16.37;;;3.70;94.40;;;;;;5031166;28;20238;-87
2022/01/12 12:59:51;;;;;;;29.73;16.98;;;3.70;94.80;;;;;;4997262;28;20302;-88
2022/01/12 13:02:17;;;;;;;28.58;16.20;;;3.80;95.40;;;;;;5010956;28;20187;-86
2022/01/12 13:04:43;;;;;;;35.35;18.95;;;3.80;94.60;;;;;;5026773;28;20203;-87
2022/01/12 13:07:18;;;;;;;35.37;18.50;;;3.70;94.50;;;;;;5031025;28;20230;-87
2022/01/12 13:09:45;;;;;;;32.97;17.83;;;3.60;94.50;;;;;;5034596;28;20515;-87
2022/01/12 13:12:12;;;;;;;40.47;19.20;;;3.60;95.40;;;;;;5039781;28;20178;-87
2022/01/12 13:14:42;;;;;;;31.75;18.65;;;3.60;95.40;;;;;;5050419;28;20177;-88
2022/01/12 13:17:08;;;;;;;41.00;19.33;;;3.60;95.40;;;;;;5016607;28;20364;-88
2022/01/12 13:21:07;;;;;;;29.73;17.00;;;3.60;95.30;;;;;;5027058;28;20678;-88
2022/01/12 13:22:25;;;;;;;37.53;19.95;;;3.60;95.50;;;;;;5028118;28;20178;-88
2022/01/12 13:24:51;;;;;;;32.40;17.13;;;3.60;95.70;;;;;;5025847;28;20214;-88
2022/01/12 13:27:16;;;;;;;31.50;17.07;;;3.60;95.50;;;;;;5010481;28;20200;-88
2022/01/12 13:29:47;;;;;;;26.27;15.80;;;3.60;95.30;;;;;;5009165;28;20476;-87
2022/01/12 13:32:13;;;;;;;28.45;16.55;;;3.60;95.30;;;;;;5013758;28;20409;-88
2022/01/12 13:34:42;;;;;;;32.33;17.20;;;3.70;96.20;;;;;;5014187;28;20202;-87
2022/01/12 13:37:13;;;;;;;26.20;15.98;;;3.70;95.40;;;;;;5016599;28;20257;-88
2022/01/12 13:39:39;;;;;;;26.90;15.73;;;3.80;95.20;;;;;;5039459;28;20706;-88
2022/01/12 13:42:06;;;;;;;32.90;18.20;;;3.80;95.40;;;;;;5038639;28;20535;-87
2022/01/12 13:44:31;;;;;;;27.35;16.65;;;3.80;95.60;;;;;;5017321;28;20233;-88
2022/01/12 13:47:11;;;;;;;27.73;15.10;;;3.90;95.70;;;;;;5014769;28;20214;-87
2022/01/12 13:49:37;;;;;;;27.75;15.77;;;4.00;95.60;;;;;;5021526;28;20406;-87
2022/01/12 13:52:05;;;;;;;25.90;14.93;;;4.00;95.90;;;;;;5017245;28;20189;-89
2022/01/12 13:54:43;;;;;;;24.88;16.88;;;4.10;95.90;;;;;;5015786;28;20175;-87
2022/01/12 13:57:12;;;;;;;26.50;16.27;;;4.20;95.70;;;;;;5032724;28;20183;-88